createdAt,value
2023-03-22T01:30:03.649Z,8.50
2023-03-22T01:32:32.075Z,10.90
2023-03-22T01:35:00.612Z,10.90
2023-03-22T01:37:28.935Z,10.80
2023-03-22T01:39:57.311Z,10.90
2023-03-22T01:57:43.917Z,10.90
2023-03-22T06:38:37.965Z,10.90
2023-03-22T06:41:06.794Z,10.40
2023-03-22T06:43:35.337Z,10.40
2023-03-22T06:46:05.486Z,10.50
2023-03-22T06:48:34.012Z,10.50
2023-03-22T06:51:02.836Z,10.50
2023-03-22T06:53:31.237Z,10.50
2023-03-22T06:55:59.657Z,10.50
2023-03-22T06:58:28.795Z,10.60
2023-03-22T07:00:57.306Z,10.60
2023-03-22T07:03:27.152Z,10.70
2023-03-22T07:06:02.405Z,10.80
2023-03-22T07:08:30.840Z,10.80
2023-03-22T07:10:59.185Z,10.90
2023-03-22T07:13:28.374Z,10.90
2023-03-22T07:15:57.582Z,10.90
2023-03-22T07:18:27.947Z,11.00
2023-03-22T07:20:56.425Z,11.00
2023-03-22T07:23:24.760Z,10.90
2023-03-22T07:25:55.938Z,10.90
2023-03-22T07:28:24.569Z,10.90
2023-03-22T07:31:02.200Z,10.90
2023-03-22T07:33:31.915Z,10.90
2023-03-22T07:36:00.539Z,10.90
2023-03-22T07:38:29.624Z,11.00
2023-03-22T07:40:57.916Z,11.00
2023-03-22T07:43:26.511Z,10.90
2023-03-22T07:45:55.243Z,11.00
2023-03-22T09:43:21.865Z,11.00
2023-03-22T09:45:52.446Z,10.80
2023-03-22T09:48:28.765Z,10.90
2023-03-22T09:50:58.273Z,10.90
2023-03-22T09:53:29.398Z,10.90
2023-03-22T09:56:04.189Z,10.90
2023-03-22T09:58:37.921Z,10.80
2023-03-22T10:01:20.860Z,10.80
2023-03-22T10:04:18.813Z,10.80
2023-03-22T10:06:50.808Z,10.90
2023-03-22T10:09:26.831Z,10.90
2023-03-22T10:12:05.148Z,10.90
2023-03-22T10:14:42.445Z,11.00
2023-03-22T10:17:14.378Z,11.10
2023-03-22T10:19:51.825Z,11.10
2023-03-22T10:22:25.175Z,11.10
2023-03-22T10:24:54.689Z,11.10
2023-03-22T10:27:24.325Z,11.20
2023-03-22T10:29:56.759Z,11.30
2023-03-22T10:32:33.252Z,11.40
2023-03-22T10:35:03.529Z,11.40
2023-03-22T10:40:08.203Z,11.60
2023-03-22T10:42:39.486Z,11.70
2023-03-22T10:45:13.331Z,11.80
2023-03-22T10:55:19.463Z,11.90
2023-03-22T11:00:24.335Z,12.10
2023-03-22T11:02:54.802Z,12.00
2023-03-22T11:05:27.382Z,11.90
2023-03-22T11:07:58.225Z,12.00
2023-03-22T11:10:29.671Z,12.00
2023-03-22T11:13:14.294Z,12.10
2023-03-22T11:15:52.152Z,12.20
2023-03-22T11:18:21.259Z,12.30
2023-03-22T11:20:59.964Z,12.20
2023-03-22T11:23:32.462Z,12.20
2023-03-22T11:26:06.883Z,12.20
2023-03-22T11:28:37.777Z,12.20
2023-03-22T11:31:09.500Z,12.20
2023-03-22T11:33:38.848Z,12.20
2023-03-22T11:36:17.763Z,12.20
2023-03-22T11:38:47.418Z,12.20
2023-03-22T11:41:23.906Z,12.20
2023-03-22T11:43:54.947Z,12.30
2023-03-22T11:46:24.324Z,12.30
2023-03-22T11:49:00.800Z,12.30
2023-03-22T11:51:37.388Z,12.40
2023-03-22T11:54:09.963Z,12.40
2023-03-22T11:56:44.661Z,12.40
2023-03-22T11:59:16.781Z,12.40
2023-03-22T12:01:51.607Z,12.30
2023-03-22T12:04:27.153Z,12.40
2023-03-22T12:06:59.818Z,12.50
2023-03-22T12:09:38.087Z,12.50
2023-03-22T12:12:11.548Z,12.50
2023-03-22T12:14:48.634Z,12.60
2023-03-22T12:17:22.235Z,12.60
2023-03-22T12:19:57.703Z,12.70
2023-03-22T12:22:35.485Z,12.70
2023-03-22T12:25:05.017Z,12.70
2023-03-22T12:27:37.439Z,12.70
2023-03-22T12:30:09.141Z,12.80
2023-03-22T12:35:18.499Z,12.70
2023-03-22T12:37:52.702Z,12.80
2023-03-22T12:40:25.311Z,12.80
2023-03-22T12:43:02.253Z,12.90
2023-03-22T12:45:34.885Z,12.90
2023-03-22T12:48:11.374Z,12.90
2023-03-22T12:50:44.642Z,12.80
2023-03-22T12:53:16.980Z,12.70
2023-03-22T12:55:47.785Z,12.60
2023-03-22T12:58:20.594Z,12.70
2023-03-22T13:00:53.534Z,12.80
2023-03-22T13:03:28.982Z,12.90
2023-03-22T13:06:07.745Z,12.90
2023-03-22T13:09:18.982Z,12.90
2023-03-22T13:11:51.190Z,12.90
2023-03-22T13:14:57.808Z,12.90
2023-03-22T13:17:46.945Z,12.90
2023-03-22T13:20:34.499Z,12.90
2023-03-22T13:23:27.015Z,13.00
2023-03-22T13:26:06.989Z,13.10
2023-03-22T13:28:38.128Z,13.20
2023-03-22T13:31:07.683Z,13.30
2023-03-22T13:33:38.853Z,13.40
2023-03-22T13:36:25.061Z,13.40
2023-03-22T13:38:58.229Z,13.40
2023-03-22T13:41:32.295Z,13.40
2023-03-22T13:44:02.612Z,13.40
2023-03-22T13:46:52.759Z,13.40
2023-03-22T13:49:58.054Z,13.40
2023-03-22T13:52:35.868Z,13.40
2023-03-22T13:55:04.894Z,13.40
2023-03-22T13:57:49.276Z,13.50
2023-03-22T14:03:09.822Z,13.50
2023-03-22T14:05:39.631Z,13.20
2023-03-22T14:08:08.457Z,13.10
2023-03-22T14:10:43.002Z,13.10
2023-03-22T14:13:20.143Z,13.00
2023-03-22T14:15:51.730Z,13.00
2023-03-22T14:18:28.372Z,13.00
2023-03-22T14:21:00.523Z,12.90
